• Join FlightAware (Why Join?)
  • Login
  • US Flag 
11:54AM EDT


 

Airport Tracker/Info


-or-


 

Live Flight TrackerFlight Track Log ✈ EGF5005 ✈ 18-May-2012 ✈ KGRR - KORD

Flight Track Log - Related Links

Times and Time Zones

All times are in EDT time to prevent confusion due to time zone crossing. See the EGF5005 flight status page for this flight to view local times or setup timezone preferences in your user account.

Time Position Orientation Groundspeed Altitude Reporting Facility
EDT Latitude Longitude Course Direction KTS MPH feet Rate Location/Type
12:15PM 42.8667 -85.5620 244° Southwest  Level Estimated
12:16PM 42.8401 -85.6354 244° Southwest  Level Estimated
12:17PM 42.8134 -85.7087 244° Southwest  Level Estimated
12:18PM 42.7867 -85.7820 244° Southwest  Level Estimated
12:19PM 42.7600 -85.8551 244° Southwest  Level Estimated
12:20PM 42.7332 -85.9283 243° Southwest  Level Estimated
12:21PM 42.7063 -86.0014 243° Southwest  Level Estimated
12:22PM 42.6794 -86.0744 243° Southwest  Level Estimated
12:23PM 42.6525 -86.1473 243° Southwest  Level Estimated
12:24PM 42.6255 -86.2202 243° Southwest  Level Estimated
12:25PM 42.5985 -86.2930 243° Southwest  Level Estimated
12:26PM 42.5714 -86.3658 243° Southwest  Level Estimated
12:27PM 42.5443 -86.4385 243° Southwest  Level Estimated
12:28PM 42.5172 -86.5111 243° Southwest  Level Estimated
12:29PM 42.4900 -86.5837 243° Southwest  Level Estimated
12:30PM 42.4627 -86.6562 243° Southwest  Level Estimated
12:31PM 42.4354 -86.7286 243° Southwest  Level Estimated
12:32PM 42.4081 -86.8010 243° Southwest  Level Estimated
12:33PM 42.3807 -86.8733 243° Southwest  Level Estimated
12:34PM 42.3532 -86.9456 243° Southwest  Level Estimated
12:35PM 42.3257 -87.0178 243° Southwest  Level Estimated
12:36PM 42.2982 -87.0899 243° Southwest  Level Estimated
12:37PM 42.2668 -87.1719 243° Southwest  Level Estimated
12:38PM 42.2354 -87.2538 243° Southwest  Level Estimated
12:39PM 42.2016 -87.3417 243° Southwest  Level Estimated
12:40PM 42.1677 -87.4295 242° Southwest  Level Estimated
12:41PM 42.1337 -87.5172 242° Southwest  Level Estimated
12:42PM 42.0997 -87.6048 242° Southwest  Level Estimated
12:43PM 42.0629 -87.6993 242° Southwest  Level Estimated
12:44PM 42.0260 -87.7937 242° Southwest  Level Estimated
12:45PM 41.9819 -87.9060 242° Southwest  Level Estimated